createdAt,value
2024-02-12T00:01:02.072Z,17.60
2024-02-12T00:03:28.470Z,21.50
2024-02-12T00:05:54.954Z,17.92
2024-02-12T00:08:21.527Z,27.70
2024-02-12T00:10:48.674Z,67.95
2024-02-12T00:13:15.138Z,32.35
2024-02-12T00:15:41.526Z,77.93
2024-02-12T00:18:07.925Z,55.60
2024-02-12T00:20:34.401Z,40.42
2024-02-12T00:23:03.570Z,74.03
2024-02-12T00:25:32.062Z,64.10
2024-02-12T00:27:58.462Z,37.17
2024-02-12T00:30:24.902Z,32.75
2024-02-12T00:32:51.425Z,19.67
2024-02-12T00:35:17.894Z,9.80
2024-02-12T00:37:44.274Z,14.23
2024-02-12T00:40:10.832Z,12.18
2024-02-12T00:42:37.622Z,11.98
2024-02-12T00:45:04.089Z,21.08
2024-02-12T00:47:30.791Z,32.00
2024-02-12T00:49:57.302Z,31.90
2024-02-12T00:52:23.736Z,47.50
2024-02-12T00:54:50.820Z,46.38
2024-02-12T00:57:17.260Z,54.25
2024-02-12T00:59:43.670Z,21.05
2024-02-12T01:02:10.073Z,16.40
2024-02-12T01:04:36.814Z,21.33
2024-02-12T01:07:03.407Z,17.73
2024-02-12T01:09:30.046Z,17.55
2024-02-12T01:11:56.657Z,13.68
2024-02-12T01:14:23.167Z,15.07
2024-02-12T01:16:49.595Z,9.45
2024-02-12T01:19:16.208Z,10.52
2024-02-12T01:21:42.660Z,11.05
2024-02-12T01:24:09.051Z,10.75
2024-02-12T01:26:35.440Z,17.48
2024-02-12T01:29:02.320Z,11.25
2024-02-12T01:31:28.757Z,10.25
2024-02-12T01:33:55.216Z,15.23
2024-02-12T01:36:21.659Z,12.13
2024-02-12T01:38:48.169Z,14.05
2024-02-12T01:41:14.697Z,12.50
2024-02-12T01:43:41.161Z,13.70
2024-02-12T01:46:07.619Z,14.85
2024-02-12T01:48:34.671Z,13.18
2024-02-12T01:51:01.106Z,11.35
2024-02-12T01:53:27.612Z,12.57
2024-02-12T01:55:54.055Z,11.65
2024-02-12T01:58:20.412Z,10.02
2024-02-12T02:00:49.742Z,15.63
2024-02-12T02:03:17.123Z,14.43
2024-02-12T02:05:43.688Z,11.63
2024-02-12T02:08:10.167Z,16.17
2024-02-12T02:10:36.644Z,16.08
2024-02-12T02:13:03.165Z,14.25
2024-02-12T02:15:29.550Z,16.92
2024-02-12T02:17:56.342Z,13.80
2024-02-12T02:20:23.042Z,11.77
2024-02-12T02:22:49.424Z,12.40
2024-02-12T02:25:15.935Z,11.25
2024-02-12T02:27:42.280Z,11.38
2024-02-12T02:30:11.402Z,14.45
2024-02-12T02:32:38.659Z,16.02
2024-02-12T02:35:05.324Z,13.45
2024-02-12T02:37:32.020Z,16.13
2024-02-12T02:39:58.353Z,18.33
2024-02-12T02:42:24.718Z,15.15
2024-02-12T02:44:51.082Z,13.98
2024-02-12T02:47:17.556Z,17.83
2024-02-12T02:49:43.950Z,15.13
2024-02-12T02:52:10.316Z,13.52
2024-02-12T02:54:36.736Z,17.63
2024-02-12T02:57:03.157Z,16.65
2024-02-12T02:59:29.552Z,19.45
2024-02-12T03:01:55.984Z,17.23
2024-02-12T03:04:22.432Z,18.05
2024-02-12T03:06:49.101Z,15.07
2024-02-12T03:09:15.531Z,15.50
2024-02-12T03:11:41.986Z,15.05
2024-02-12T03:14:08.501Z,12.48
2024-02-12T03:16:34.902Z,12.98
2024-02-12T03:19:01.407Z,14.00
2024-02-12T03:21:29.761Z,14.52
2024-02-12T03:23:56.164Z,16.73
2024-02-12T03:26:22.635Z,15.73
2024-02-12T03:28:49.077Z,12.50
2024-02-12T03:31:15.517Z,13.57
2024-02-12T03:33:41.930Z,12.13
2024-02-12T03:36:08.544Z,12.65
2024-02-12T03:38:35.000Z,14.07
2024-02-12T03:41:01.378Z,11.48
2024-02-12T03:43:27.772Z,13.48
2024-02-12T03:45:54.472Z,12.18
2024-02-12T03:48:20.872Z,11.02
2024-02-12T03:50:48.377Z,10.90
2024-02-12T03:53:21.638Z,10.80
2024-02-12T03:55:48.097Z,15.85
2024-02-12T03:58:14.473Z,13.95
2024-02-12T04:00:41.019Z,12.05
2024-02-12T04:03:07.532Z,12.05
2024-02-12T04:05:33.927Z,10.45
2024-02-12T04:08:00.384Z,10.40
2024-02-12T04:10:28.303Z,9.63
2024-02-12T04:12:55.001Z,9.38
2024-02-12T04:15:21.387Z,10.15
2024-02-12T04:17:47.876Z,12.18
2024-02-12T04:20:14.319Z,10.07
2024-02-12T04:22:40.968Z,8.82
2024-02-12T04:25:07.791Z,9.07
2024-02-12T04:27:34.264Z,51.25
2024-02-12T04:30:00.629Z,48.45
2024-02-12T04:32:27.079Z,29.95
2024-02-12T04:34:53.508Z,17.00
2024-02-12T04:37:19.904Z,26.77
2024-02-12T04:39:49.028Z,12.10
2024-02-12T04:42:15.426Z,10.30
2024-02-12T04:44:41.956Z,9.77
2024-02-12T04:47:08.453Z,9.30
2024-02-12T04:49:34.923Z,9.43
2024-02-12T04:52:01.296Z,10.18
2024-02-12T04:54:27.656Z,10.07
2024-02-12T04:56:54.014Z,11.70
2024-02-12T04:59:20.512Z,10.02
2024-02-12T05:01:46.944Z,10.95
2024-02-12T05:04:13.540Z,10.02
2024-02-12T05:06:40.005Z,12.23
2024-02-12T05:09:06.643Z,9.57
2024-02-12T05:11:33.015Z,11.23
2024-02-12T05:13:59.566Z,11.85
2024-02-12T05:16:25.952Z,11.13
2024-02-12T05:18:52.379Z,10.68
2024-02-12T05:21:18.846Z,6.18
2024-02-12T05:23:45.263Z,7.07
2024-02-12T05:26:11.722Z,11.25
2024-02-12T05:28:38.055Z,9.35
2024-02-12T05:31:04.500Z,7.65
2024-02-12T05:33:30.920Z,7.75
2024-02-12T05:35:57.407Z,10.50
2024-02-12T05:38:23.844Z,9.70
2024-02-12T05:40:50.305Z,11.60
2024-02-12T05:43:16.657Z,12.27
2024-02-12T05:45:43.082Z,11.23
2024-02-12T05:48:09.588Z,11.98
2024-02-12T05:50:36.038Z,10.10
2024-02-12T05:53:02.540Z,15.02
2024-02-12T05:55:28.930Z,11.48
2024-02-12T05:57:55.261Z,15.55
2024-02-12T06:00:21.696Z,17.02
2024-02-12T06:02:48.072Z,16.27
2024-02-12T06:05:14.574Z,11.52
2024-02-12T06:07:41.171Z,11.82
2024-02-12T06:10:07.929Z,12.20
2024-02-12T06:12:34.692Z,16.20
2024-02-12T06:15:01.269Z,15.23
2024-02-12T06:17:27.970Z,13.70
2024-02-12T06:19:54.354Z,12.52
2024-02-12T06:22:20.797Z,13.63
2024-02-12T06:24:47.245Z,12.82
2024-02-12T06:27:13.639Z,16.75
2024-02-12T06:29:40.067Z,20.02
2024-02-12T06:32:06.773Z,27.02
2024-02-12T06:34:33.230Z,18.70
2024-02-12T06:36:59.648Z,24.35
2024-02-12T06:39:26.005Z,40.70
2024-02-12T06:41:52.374Z,29.77
2024-02-12T06:44:18.810Z,81.78
2024-02-12T06:46:45.244Z,87.13
2024-02-12T06:49:11.613Z,49.65
2024-02-12T06:51:41.522Z,57.33
2024-02-12T06:54:07.946Z,28.65
2024-02-12T06:56:34.590Z,35.17
2024-02-12T06:59:01.151Z,30.67
2024-02-12T07:01:27.876Z,30.48
2024-02-12T07:03:54.294Z,42.40
2024-02-12T07:06:20.836Z,58.97
2024-02-12T07:08:47.273Z,43.33
2024-02-12T07:11:14.447Z,44.88
2024-02-12T07:13:40.861Z,46.33
2024-02-12T07:16:07.405Z,38.08
2024-02-12T07:18:33.870Z,32.65
2024-02-12T07:21:00.455Z,28.40
2024-02-12T07:23:26.842Z,30.52
2024-02-12T07:25:53.278Z,40.00
2024-02-12T07:28:19.715Z,38.60
2024-02-12T07:30:46.118Z,32.90
2024-02-12T07:33:12.634Z,34.22
2024-02-12T07:35:39.105Z,32.78
2024-02-12T07:38:05.508Z,30.63
2024-02-12T07:40:31.972Z,26.92
2024-02-12T07:42:58.380Z,34.22
2024-02-12T07:45:24.730Z,27.13
2024-02-12T07:47:51.205Z,31.13
2024-02-12T07:50:17.676Z,31.15
2024-02-12T07:52:44.060Z,38.20
2024-02-12T07:55:10.559Z,25.75
2024-02-12T07:57:37.019Z,30.55
2024-02-12T08:00:03.536Z,30.45
2024-02-12T08:02:29.948Z,25.67
2024-02-12T08:04:56.355Z,33.88
2024-02-12T08:07:32.059Z,29.02
2024-02-12T08:10:05.014Z,27.75
2024-02-12T08:12:31.811Z,29.13
2024-02-12T08:14:58.183Z,22.10
2024-02-12T08:17:28.390Z,28.63
2024-02-12T08:19:55.760Z,23.88
2024-02-12T08:22:22.281Z,23.98
2024-02-12T08:24:49.290Z,24.35
2024-02-12T08:27:15.673Z,23.60
2024-02-12T08:29:42.092Z,19.33
2024-02-12T08:32:08.635Z,14.40
2024-02-12T08:34:38.103Z,11.52
2024-02-12T08:37:04.754Z,15.55
2024-02-12T08:39:31.128Z,12.82
2024-02-12T08:41:57.477Z,12.32
2024-02-12T08:44:23.932Z,16.17
2024-02-12T08:46:50.395Z,9.65
2024-02-12T08:49:16.934Z,10.85
2024-02-12T08:51:43.650Z,8.25
2024-02-12T08:54:10.147Z,7.88
2024-02-12T08:56:38.669Z,13.70
2024-02-12T08:59:05.127Z,9.07
2024-02-12T09:01:31.573Z,8.57
2024-02-12T09:03:57.995Z,12.13
2024-02-12T09:06:24.420Z,13.88
2024-02-12T09:08:50.835Z,10.05
2024-02-12T09:11:17.326Z,11.43
2024-02-12T09:13:43.976Z,9.70
2024-02-12T09:16:10.730Z,10.60
2024-02-12T09:18:37.527Z,8.57
2024-02-12T09:21:04.012Z,7.53
2024-02-12T09:23:30.505Z,15.23
2024-02-12T09:25:57.238Z,8.25
2024-02-12T09:28:23.972Z,10.32
2024-02-12T09:30:50.604Z,11.48
2024-02-12T09:33:17.374Z,11.48
2024-02-12T09:35:43.937Z,6.72
2024-02-12T09:38:10.505Z,9.40
2024-02-12T09:40:37.062Z,11.32
2024-02-12T09:43:04.061Z,7.35
2024-02-12T09:45:30.764Z,10.38
2024-02-12T09:47:57.806Z,9.65
2024-02-12T09:50:25.066Z,8.73
2024-02-12T09:52:51.745Z,5.57
2024-02-12T09:55:19.050Z,12.30
2024-02-12T09:57:46.435Z,10.18
2024-02-12T10:00:13.173Z,9.48
2024-02-12T10:02:39.684Z,14.00
2024-02-12T10:05:06.285Z,7.55
2024-02-12T10:07:39.631Z,20.00
2024-02-12T10:10:06.566Z,7.18
2024-02-12T10:12:33.231Z,4.78
2024-02-12T10:14:59.680Z,9.20
2024-02-12T10:17:26.199Z,8.85
2024-02-12T10:19:52.727Z,8.25
2024-02-12T10:22:19.211Z,6.40
2024-02-12T10:24:46.960Z,7.95
2024-02-12T10:27:13.373Z,12.73
2024-02-12T10:29:39.886Z,11.02
2024-02-12T10:32:06.841Z,8.10
2024-02-12T10:34:33.469Z,8.88
2024-02-12T10:37:01.388Z,8.70
2024-02-12T10:39:29.129Z,6.65
2024-02-12T10:41:57.014Z,15.10
2024-02-12T10:44:23.929Z,8.15
2024-02-12T10:46:50.726Z,11.45
2024-02-12T10:49:18.470Z,10.60
2024-02-12T10:51:45.528Z,9.38
2024-02-12T10:54:12.024Z,7.70
2024-02-12T10:56:38.956Z,10.45
2024-02-12T10:59:05.487Z,13.13
2024-02-12T11:01:32.596Z,11.82
2024-02-12T11:03:59.862Z,7.10
2024-02-12T11:06:26.715Z,11.55
2024-02-12T11:08:54.403Z,5.03
2024-02-12T11:11:22.177Z,8.93
2024-02-12T11:13:48.982Z,10.68
2024-02-12T11:16:18.985Z,11.02
2024-02-12T11:18:45.726Z,9.95
2024-02-12T11:21:12.283Z,11.13
2024-02-12T11:23:38.943Z,7.28
2024-02-12T11:26:05.517Z,6.95
2024-02-12T11:28:32.129Z,6.13
2024-02-12T11:30:58.962Z,7.57
2024-02-12T11:33:26.229Z,12.95
2024-02-12T11:36:09.458Z,7.05
2024-02-12T11:38:49.321Z,6.00
2024-02-12T11:41:15.903Z,5.45
2024-02-12T11:43:43.280Z,5.50
2024-02-12T11:46:11.196Z,10.82
2024-02-12T11:48:37.618Z,10.13
2024-02-12T11:51:04.021Z,11.15
2024-02-12T11:53:30.475Z,11.82
2024-02-12T11:55:57.361Z,10.63
2024-02-12T11:58:23.770Z,7.03
2024-02-12T12:00:50.203Z,9.57
2024-02-12T12:03:16.605Z,8.90
2024-02-12T12:05:43.081Z,11.32
2024-02-12T12:08:09.507Z,10.07
2024-02-12T12:10:35.954Z,10.55
2024-02-12T12:13:02.385Z,8.43
2024-02-12T12:15:29.485Z,4.18
2024-02-12T12:17:56.576Z,12.20
2024-02-12T12:20:23.142Z,9.50
2024-02-12T12:22:49.706Z,7.07
2024-02-12T12:25:16.214Z,9.15
2024-02-12T12:27:42.610Z,8.85
2024-02-12T12:30:09.115Z,7.32
2024-02-12T12:32:36.000Z,7.80
2024-02-12T12:35:02.750Z,13.25
2024-02-12T12:37:29.199Z,7.53
2024-02-12T12:39:55.592Z,9.35
2024-02-12T12:42:22.008Z,8.55
2024-02-12T12:44:48.521Z,4.32
2024-02-12T12:47:14.996Z,4.30
2024-02-12T12:49:41.515Z,3.30
2024-02-12T12:52:08.026Z,5.80
2024-02-12T12:54:34.388Z,7.97
2024-02-12T12:57:00.816Z,5.65
2024-02-12T12:59:33.825Z,8.30
2024-02-12T13:02:00.309Z,5.03
2024-02-12T13:04:26.698Z,16.45
2024-02-12T13:06:53.089Z,4.60
2024-02-12T13:09:19.513Z,5.82
2024-02-12T13:11:46.023Z,4.50
2024-02-12T13:14:12.607Z,6.95
2024-02-12T13:16:39.081Z,5.88
2024-02-12T13:19:05.691Z,7.32
2024-02-12T13:21:32.081Z,11.90
2024-02-12T13:23:58.631Z,3.63
2024-02-12T13:26:25.090Z,6.63
2024-02-12T13:28:51.970Z,6.72
2024-02-12T13:31:18.421Z,5.65
2024-02-12T13:33:45.004Z,9.13
2024-02-12T13:36:11.918Z,3.72
2024-02-12T13:38:38.407Z,3.25
2024-02-12T13:41:04.920Z,5.10
2024-02-12T13:43:31.746Z,3.05
2024-02-12T13:45:58.181Z,4.38
2024-02-12T13:48:25.012Z,2.05
2024-02-12T13:50:51.489Z,4.88
2024-02-12T13:53:17.911Z,4.00
2024-02-12T13:55:44.336Z,4.03
2024-02-12T13:58:10.724Z,6.13
2024-02-12T14:00:55.106Z,9.43
2024-02-12T14:03:24.117Z,8.18
2024-02-12T14:05:50.713Z,8.70
2024-02-12T14:08:17.208Z,3.47
2024-02-12T14:10:43.694Z,9.82
2024-02-12T14:13:11.440Z,6.00
2024-02-12T14:16:04.137Z,12.27
2024-02-12T14:18:24.980Z,6.85
2024-02-12T14:20:51.469Z,6.43
2024-02-12T14:23:17.914Z,3.53
2024-02-12T14:25:44.351Z,6.55
2024-02-12T14:28:11.093Z,4.60
2024-02-12T14:30:37.844Z,6.25
2024-02-12T14:33:04.554Z,8.82
2024-02-12T14:35:31.198Z,8.70
2024-02-12T14:37:57.669Z,4.45
2024-02-12T14:40:24.680Z,8.50
2024-02-12T14:42:51.202Z,6.85
2024-02-12T14:45:17.835Z,5.82
2024-02-12T14:47:44.529Z,7.07
2024-02-12T14:50:11.542Z,13.32
2024-02-12T14:52:38.053Z,11.07
2024-02-12T14:55:04.873Z,4.28
2024-02-12T14:57:31.318Z,8.15
2024-02-12T14:59:57.733Z,9.80
2024-02-12T15:02:24.096Z,11.93
2024-02-12T15:04:50.821Z,6.90
2024-02-12T15:07:19.056Z,9.88
2024-02-12T15:09:46.324Z,8.40
2024-02-12T15:12:15.701Z,10.40
2024-02-12T15:14:42.764Z,4.00
2024-02-12T15:17:09.215Z,8.18
2024-02-12T15:19:35.736Z,5.60
2024-02-12T15:22:02.190Z,6.35
2024-02-12T15:24:28.507Z,5.20
2024-02-12T15:26:54.902Z,4.15
2024-02-12T15:29:21.368Z,7.40
2024-02-12T15:31:47.802Z,11.13
2024-02-12T15:34:14.392Z,11.27
2024-02-12T15:36:40.962Z,4.40
2024-02-12T15:39:07.785Z,4.57
2024-02-12T15:41:34.182Z,6.05
2024-02-12T15:44:00.669Z,4.25
2024-02-12T15:46:27.187Z,5.13
2024-02-12T15:48:53.709Z,6.53
2024-02-12T15:51:20.123Z,5.15
2024-02-12T15:53:46.730Z,7.22
2024-02-12T15:56:13.917Z,6.10
2024-02-12T15:58:40.334Z,4.22
2024-02-12T16:01:06.814Z,5.82
2024-02-12T16:03:33.262Z,12.63
2024-02-12T16:05:59.845Z,9.38
2024-02-12T16:08:26.515Z,6.68
2024-02-12T16:10:53.137Z,5.80
2024-02-12T16:13:19.511Z,9.75
2024-02-12T16:15:48.533Z,8.52
2024-02-12T16:18:15.378Z,5.53
2024-02-12T16:20:41.823Z,8.82
2024-02-12T16:23:08.303Z,6.38
2024-02-12T16:25:34.695Z,11.30
2024-02-12T16:28:01.137Z,10.05
2024-02-12T16:30:27.486Z,4.25
2024-02-12T16:32:54.213Z,6.18
2024-02-12T16:35:21.248Z,5.20
2024-02-12T16:37:48.290Z,8.35
2024-02-12T16:40:14.793Z,13.88
2024-02-12T16:42:41.792Z,10.90
2024-02-12T16:45:11.350Z,22.10
2024-02-12T16:47:38.213Z,10.38
2024-02-12T16:50:05.966Z,12.38
2024-02-12T16:52:32.673Z,16.55
2024-02-12T16:54:59.123Z,8.60
2024-02-12T16:57:25.482Z,17.08
2024-02-12T16:59:52.658Z,21.60
2024-02-12T17:02:19.307Z,15.75
2024-02-12T17:04:45.707Z,13.65
2024-02-12T17:07:12.144Z,10.05
2024-02-12T17:09:38.644Z,13.27
2024-02-12T17:12:05.192Z,13.05
2024-02-12T17:14:31.640Z,12.32
2024-02-12T17:16:58.313Z,16.45
2024-02-12T17:19:24.797Z,18.38
2024-02-12T17:21:51.227Z,31.65
2024-02-12T17:24:17.612Z,32.67
2024-02-12T17:26:44.019Z,45.10
2024-02-12T17:29:10.452Z,97.40
2024-02-12T17:31:36.920Z,53.28
2024-02-12T17:34:03.382Z,43.97
2024-02-12T17:36:29.850Z,30.20
2024-02-12T17:38:56.241Z,23.15
2024-02-12T17:41:22.652Z,30.95
2024-02-12T17:43:49.129Z,30.35
2024-02-12T17:46:15.538Z,21.73
2024-02-12T17:48:42.267Z,16.40
2024-02-12T17:51:08.801Z,19.25
2024-02-12T17:53:35.266Z,13.80
2024-02-12T17:56:01.761Z,12.65
2024-02-12T17:58:28.204Z,62.17
2024-02-12T18:00:54.633Z,74.95
2024-02-12T18:03:21.091Z,75.18
2024-02-12T18:05:47.669Z,45.10
2024-02-12T18:08:14.102Z,26.35
2024-02-12T18:10:40.468Z,16.13
2024-02-12T18:13:07.009Z,13.25
2024-02-12T18:15:33.390Z,14.00
2024-02-12T18:17:59.800Z,11.93
2024-02-12T18:20:26.232Z,11.60
2024-02-12T18:22:52.615Z,11.73
2024-02-12T18:25:18.986Z,13.95
2024-02-12T18:27:45.375Z,12.77
2024-02-12T18:30:11.987Z,11.70
2024-02-12T18:32:38.890Z,17.65
2024-02-12T18:35:05.590Z,22.23
2024-02-12T18:37:32.003Z,11.35
2024-02-12T18:39:58.340Z,14.70
2024-02-12T18:42:25.008Z,12.43
2024-02-12T18:44:51.990Z,17.88
2024-02-12T18:47:18.410Z,18.58
2024-02-12T18:49:45.017Z,17.88
2024-02-12T18:52:11.579Z,17.73
2024-02-12T18:54:38.004Z,14.13
2024-02-12T18:57:04.426Z,14.63
2024-02-12T18:59:30.933Z,17.27
2024-02-12T19:01:57.406Z,22.83
2024-02-12T19:04:23.963Z,24.33
2024-02-12T19:06:50.582Z,23.77
2024-02-12T19:09:17.081Z,24.30
2024-02-12T19:11:43.520Z,23.95
2024-02-12T19:14:10.017Z,21.20
2024-02-12T19:16:36.863Z,15.25
2024-02-12T19:19:03.385Z,23.63
2024-02-12T19:21:29.919Z,16.23
2024-02-12T19:23:56.383Z,19.95
2024-02-12T19:26:22.921Z,20.38
2024-02-12T19:28:49.416Z,18.27
2024-02-12T19:31:16.140Z,24.15
2024-02-12T19:33:42.659Z,29.55
2024-02-12T19:36:09.247Z,26.65
2024-02-12T19:38:35.678Z,28.38
2024-02-12T19:41:02.098Z,30.95
2024-02-12T19:43:28.438Z,52.85
2024-02-12T19:45:54.923Z,57.88
2024-02-12T19:48:21.454Z,48.15
2024-02-12T19:50:47.967Z,42.17
2024-02-12T19:53:14.404Z,46.25
2024-02-12T19:55:40.811Z,43.72
2024-02-12T19:58:07.223Z,46.97
2024-02-12T20:00:33.723Z,45.03
2024-02-12T20:03:00.288Z,44.97
2024-02-12T20:05:26.694Z,41.90
2024-02-12T20:07:53.138Z,44.95
2024-02-12T20:10:19.599Z,42.35
2024-02-12T20:12:46.066Z,44.33
2024-02-12T20:15:13.632Z,37.72
2024-02-12T20:17:40.770Z,41.70
2024-02-12T20:20:08.002Z,50.70
2024-02-12T20:22:35.505Z,52.33
2024-02-12T20:25:05.264Z,47.17
2024-02-12T20:27:32.242Z,55.38
2024-02-12T20:29:58.780Z,79.78
2024-02-12T20:32:25.180Z,84.50
2024-02-12T20:34:51.748Z,44.38
2024-02-12T20:37:18.194Z,42.00
2024-02-12T20:39:44.673Z,70.35
2024-02-12T20:42:11.058Z,65.03
2024-02-12T20:44:37.588Z,74.65
2024-02-12T20:47:04.309Z,60.15
2024-02-12T20:49:30.803Z,52.08
2024-02-12T20:52:00.238Z,46.13
2024-02-12T20:54:27.451Z,51.33
2024-02-12T20:56:54.341Z,49.15
2024-02-12T20:59:20.766Z,63.80
2024-02-12T21:01:47.163Z,60.75
2024-02-12T21:04:13.708Z,41.00
2024-02-12T21:06:40.335Z,49.10
2024-02-12T21:09:06.758Z,49.00
2024-02-12T21:11:33.186Z,45.65
2024-02-12T21:13:59.568Z,52.10
2024-02-12T21:16:25.933Z,49.28
2024-02-12T21:18:52.353Z,56.95
2024-02-12T21:21:18.923Z,61.65
2024-02-12T21:23:45.347Z,49.30
2024-02-12T21:26:11.872Z,59.88
2024-02-12T21:28:38.318Z,59.42
2024-02-12T21:31:04.780Z,53.83
2024-02-12T21:33:31.731Z,48.45
2024-02-12T21:35:58.630Z,55.55
2024-02-12T21:38:25.054Z,49.30
2024-02-12T21:40:51.692Z,50.28
2024-02-12T21:43:18.402Z,45.30
2024-02-12T21:45:44.867Z,44.67
2024-02-12T21:48:11.389Z,43.67
2024-02-12T21:50:38.181Z,53.47
2024-02-12T21:53:04.674Z,41.00
2024-02-12T21:55:31.089Z,41.80
2024-02-12T21:57:57.707Z,49.72
2024-02-12T22:00:24.280Z,41.90
2024-02-12T22:02:50.945Z,49.50
2024-02-12T22:05:17.446Z,53.78
2024-02-12T22:07:43.869Z,45.08
2024-02-12T22:10:10.289Z,50.00
2024-02-12T22:12:36.645Z,53.22
2024-02-12T22:15:03.068Z,48.03
2024-02-12T22:17:30.418Z,50.78
2024-02-12T22:19:56.926Z,54.42
2024-02-12T22:22:23.342Z,41.17
2024-02-12T22:24:49.681Z,55.83
2024-02-12T22:27:16.697Z,46.58
2024-02-12T22:29:45.984Z,45.78
2024-02-12T22:32:12.553Z,39.90
2024-02-12T22:34:39.050Z,48.83
2024-02-12T22:37:05.746Z,55.47
2024-02-12T22:39:32.212Z,115.72
2024-02-12T22:41:58.784Z,91.18
2024-02-12T22:44:25.254Z,71.18
2024-02-12T22:46:54.412Z,73.60
2024-02-12T22:49:21.047Z,72.50
2024-02-12T22:51:50.371Z,68.65
2024-02-12T22:54:16.842Z,51.50
2024-02-12T22:56:43.262Z,69.57
2024-02-12T22:59:09.823Z,52.05
2024-02-12T23:01:36.539Z,44.28
2024-02-12T23:04:03.870Z,42.33
2024-02-12T23:06:30.362Z,44.17
2024-02-12T23:08:56.781Z,34.05
2024-02-12T23:11:23.171Z,37.08
2024-02-12T23:13:49.564Z,32.30
2024-02-12T23:16:16.621Z,25.90
2024-02-12T23:18:43.235Z,27.83
2024-02-12T23:21:09.712Z,22.70
2024-02-12T23:23:36.215Z,24.25
2024-02-12T23:26:06.211Z,26.60
2024-02-12T23:28:33.112Z,25.15
2024-02-12T23:30:59.593Z,24.10
2024-02-12T23:33:26.090Z,12.70
2024-02-12T23:35:52.683Z,18.85
2024-02-12T23:38:22.276Z,20.83
2024-02-12T23:40:49.063Z,27.90
2024-02-12T23:43:15.586Z,24.05
2024-02-12T23:45:42.005Z,20.15
2024-02-12T23:48:09.221Z,15.43
2024-02-12T23:50:35.751Z,21.83
2024-02-12T23:53:02.374Z,13.00
2024-02-12T23:55:28.941Z,16.50
2024-02-12T23:57:55.269Z,18.60
